TXG weather

CLOSED Taichung Airport
Taichung City, Taichung (city), Taiwan

Public forecast

Using degrees Celsius for public forecast. Weather courtesy of forecast.io.

Closest aviation weather report (METAR) to Taichung Airport

Closest report is Taichung Ching Chuang Kang Airport, 5.0 nm (9.3 km) NNW. Retrieved 2019/11/21 22:30 UTC (10 minutes ago):

RCMQ 212230Z 02015KT 9999 -DZ SCT006 BKN016 BKN030 20/19 Q1014 NOSIG RMK A2996

Closest aviation forecast (TAF) to Taichung Airport

Closest forecast is Taichung Ching Chuang Kang Airport, 5.0 nm (9.3 km) NNW. Retrieved 2019/11/21 18:21 UTC (4 hours ago):

TAF RCMQ 211700Z 2118/2218 36015KT 9999 SCT008 BKN016 BKN040 TX28/2207Z TN17/2121Z BECMG 2200/2203 9999 FEW012 SCT040 BKN060 BECMG 2209/2211 36012KT